createdAt,value
2022-08-07T00:02:40.823Z,1.50
2022-08-07T00:05:11.185Z,1.52
2022-08-07T00:07:43.829Z,1.63
2022-08-07T00:10:27.050Z,1.80
2022-08-07T00:13:17.499Z,1.88
2022-08-07T00:15:56.917Z,1.65
2022-08-07T00:18:29.583Z,3.10
2022-08-07T00:21:08.195Z,1.80
2022-08-07T00:23:58.720Z,1.63
2022-08-07T00:26:58.743Z,2.28
2022-08-07T00:29:31.263Z,2.83
2022-08-07T00:32:06.741Z,2.05
2022-08-07T00:34:40.723Z,2.22
2022-08-07T00:37:13.229Z,1.85
2022-08-07T00:39:54.366Z,1.90
2022-08-07T00:42:29.226Z,2.55
2022-08-07T00:45:06.789Z,1.95
2022-08-07T00:48:08.757Z,1.70
2022-08-07T00:50:46.466Z,2.53
2022-08-07T00:53:24.233Z,3.75
2022-08-07T00:56:02.250Z,2.55
2022-08-07T00:58:36.604Z,3.05
2022-08-07T01:01:11.173Z,2.58
2022-08-07T01:03:56.942Z,2.30
2022-08-07T01:06:33.140Z,2.70
2022-08-07T01:09:06.343Z,2.30
2022-08-07T01:12:09.584Z,3.30
2022-08-07T01:14:33.278Z,2.45
2022-08-07T01:17:11.358Z,2.30
2022-08-07T01:19:52.438Z,4.32
2022-08-07T01:22:29.451Z,2.72
2022-08-07T01:25:05.274Z,2.75
2022-08-07T01:27:57.634Z,3.92
2022-08-07T01:30:33.760Z,2.53
2022-08-07T01:33:06.562Z,3.60
2022-08-07T01:35:53.385Z,2.90
2022-08-07T01:38:29.425Z,2.75
2022-08-07T01:41:05.368Z,3.60
2022-08-07T01:43:39.453Z,2.45
2022-08-07T01:46:12.693Z,3.63
2022-08-07T01:48:48.663Z,2.45
2022-08-07T01:52:03.732Z,3.22
2022-08-07T01:54:36.392Z,2.85
2022-08-07T01:57:24.570Z,2.70
2022-08-07T02:00:03.138Z,2.83
2022-08-07T02:03:11.653Z,2.33
2022-08-07T02:06:02.336Z,2.90
2022-08-07T02:08:44.786Z,2.88
2022-08-07T02:12:02.975Z,2.75
2022-08-07T02:14:35.441Z,3.22
2022-08-07T02:17:06.542Z,2.58
2022-08-07T02:20:04.586Z,3.08
2022-08-07T02:22:41.427Z,2.55
2022-08-07T02:25:20.065Z,3.55
2022-08-07T02:28:15.104Z,2.95
2022-08-07T02:31:10.329Z,4.00
2022-08-07T02:34:03.734Z,3.60
2022-08-07T02:36:45.935Z,2.63
2022-08-07T02:39:42.627Z,3.25
2022-08-07T02:42:14.698Z,4.03
2022-08-07T02:44:53.326Z,2.78
2022-08-07T02:47:26.956Z,2.65
2022-08-07T02:50:08.477Z,3.20
2022-08-07T02:53:00.877Z,3.20
2022-08-07T02:56:03.032Z,3.10
2022-08-07T02:58:39.679Z,3.97
2022-08-07T03:01:35.799Z,3.78
2022-08-07T03:04:12.462Z,3.20
2022-08-07T03:06:48.512Z,2.85
2022-08-07T03:09:42.458Z,2.15
2022-08-07T03:12:21.808Z,2.95
2022-08-07T03:14:56.387Z,3.67
2022-08-07T03:17:31.164Z,4.30
2022-08-07T03:20:10.540Z,2.83
2022-08-07T03:22:50.298Z,3.20
2022-08-07T03:25:27.472Z,2.83
2022-08-07T03:28:37.697Z,3.25
2022-08-07T03:31:24.485Z,3.42
2022-08-07T03:34:04.386Z,2.75
2022-08-07T03:36:40.414Z,3.70
2022-08-07T03:39:59.177Z,2.78
2022-08-07T03:42:15.325Z,3.90
2022-08-07T03:47:48.056Z,2.30
2022-08-07T03:50:25.363Z,2.80
2022-08-07T03:53:02.777Z,3.83
2022-08-07T03:55:52.833Z,3.08
2022-08-07T03:59:04.981Z,3.35
2022-08-07T04:01:28.877Z,2.70
2022-08-07T04:04:04.939Z,3.50
2022-08-07T04:09:16.173Z,4.03
2022-08-07T04:12:24.512Z,2.95
2022-08-07T04:14:46.253Z,3.08
2022-08-07T04:17:21.881Z,3.55
2022-08-07T04:19:55.245Z,3.33
2022-08-07T04:22:29.541Z,3.67
2022-08-07T04:25:03.050Z,5.68
2022-08-07T04:27:44.424Z,3.00
2022-08-07T04:30:36.021Z,4.32
2022-08-07T04:33:15.562Z,3.30
2022-08-07T04:35:50.598Z,4.20
2022-08-07T04:38:26.735Z,2.63
2022-08-07T04:40:59.308Z,3.95
2022-08-07T04:44:09.827Z,3.50
2022-08-07T04:47:03.974Z,2.97
2022-08-07T04:50:10.948Z,4.80
2022-08-07T04:52:56.615Z,3.60
2022-08-07T04:58:15.551Z,5.90
2022-08-07T05:00:07.978Z,3.83
2022-08-07T05:02:20.490Z,4.68
2022-08-07T05:05:53.206Z,3.78
2022-08-07T05:09:00.688Z,4.00
2022-08-07T05:11:56.993Z,3.70
2022-08-07T05:14:59.087Z,4.03
2022-08-07T05:17:51.493Z,3.70
2022-08-07T05:20:38.243Z,2.83
2022-08-07T05:23:19.354Z,3.45
2022-08-07T05:26:15.695Z,4.97
2022-08-07T05:28:53.957Z,3.22
2022-08-07T05:31:34.801Z,3.25
2022-08-07T05:34:12.982Z,3.78
2022-08-07T05:36:53.193Z,4.35
2022-08-07T05:40:07.075Z,4.03
2022-08-07T05:42:33.296Z,4.68
2022-08-07T05:45:25.783Z,4.53
2022-08-07T05:48:04.074Z,3.97
2022-08-07T05:50:39.484Z,4.78
2022-08-07T05:54:09.273Z,4.78
2022-08-07T05:56:10.173Z,3.80
2022-08-07T05:58:52.503Z,4.15
2022-08-07T06:01:34.839Z,3.42
2022-08-07T06:04:10.784Z,5.45
2022-08-07T06:06:46.133Z,5.18
2022-08-07T06:09:20.184Z,3.83
2022-08-07T06:11:52.979Z,4.25
2022-08-07T06:14:28.534Z,4.55
2022-08-07T06:17:07.227Z,4.05
2022-08-07T06:19:48.032Z,3.25
2022-08-07T06:22:40.119Z,4.28
2022-08-07T06:25:13.638Z,5.07
2022-08-07T06:28:01.038Z,4.55
2022-08-07T06:30:45.371Z,5.05
2022-08-07T06:33:20.379Z,5.07
2022-08-07T06:38:58.510Z,5.43
2022-08-07T06:42:00.995Z,6.07
2022-08-07T06:44:39.748Z,5.05
2022-08-07T06:49:52.486Z,5.10
2022-08-07T06:52:37.197Z,4.70
2022-08-07T06:55:33.327Z,4.78
2022-08-07T06:58:13.787Z,5.20
2022-08-07T07:00:52.968Z,5.15
2022-08-07T07:06:23.794Z,5.30
2022-08-07T07:08:57.015Z,5.15
2022-08-07T07:12:09.066Z,4.60
2022-08-07T07:14:27.955Z,4.13
2022-08-07T07:17:10.810Z,4.00
2022-08-07T07:19:59.060Z,3.95
2022-08-07T07:22:39.771Z,3.75
2022-08-07T07:26:34.089Z,4.03
2022-08-07T07:29:23.600Z,3.50
2022-08-07T07:31:39.882Z,4.82
2022-08-07T07:34:30.580Z,5.40
2022-08-07T07:37:22.063Z,5.05
2022-08-07T07:40:10.223Z,4.53
2022-08-07T07:42:54.151Z,5.28
2022-08-07T07:46:40.465Z,4.80
2022-08-07T07:48:35.822Z,4.45
2022-08-07T07:51:10.557Z,5.05
2022-08-07T07:53:52.083Z,5.22
2022-08-07T07:56:30.156Z,4.28
2022-08-07T07:59:06.440Z,4.03
2022-08-07T08:02:04.817Z,4.75
2022-08-07T08:04:43.265Z,4.47
2022-08-07T08:07:20.218Z,4.30
2022-08-07T08:10:04.789Z,3.13
2022-08-07T08:12:59.032Z,3.33
2022-08-07T08:15:57.417Z,3.33
2022-08-07T08:21:05.036Z,4.30
2022-08-07T08:23:58.716Z,2.92
2022-08-07T08:26:50.637Z,2.95
2022-08-07T08:29:23.522Z,2.38
2022-08-07T08:32:18.704Z,2.20
2022-08-07T08:35:00.602Z,2.90
2022-08-07T08:38:00.296Z,2.90
2022-08-07T08:41:04.008Z,2.40
2022-08-07T08:44:04.164Z,1.77
2022-08-07T08:46:56.138Z,2.00
2022-08-07T08:50:05.298Z,1.25
2022-08-07T08:52:59.780Z,3.60
2022-08-07T08:55:55.143Z,1.48
2022-08-07T08:58:54.586Z,1.95
2022-08-07T09:01:46.425Z,1.63
2022-08-07T09:05:07.797Z,2.38
2022-08-07T09:08:29.903Z,1.80
2022-08-07T09:11:24.715Z,1.55
2022-08-07T09:16:25.688Z,2.17
2022-08-07T09:18:30.751Z,1.92
2022-08-07T09:21:58.189Z,2.13
2022-08-07T09:24:58.837Z,1.98
2022-08-07T09:28:00.459Z,1.83
2022-08-07T09:30:57.094Z,2.03
2022-08-07T09:34:04.700Z,3.10
2022-08-07T09:37:01.537Z,1.50
2022-08-07T09:40:17.887Z,2.28
2022-08-07T09:43:12.343Z,1.45
2022-08-07T09:47:55.116Z,1.48
2022-08-07T09:52:53.918Z,1.90
2022-08-07T09:56:34.086Z,1.40
2022-08-07T10:00:01.032Z,1.73
2022-08-07T10:02:56.148Z,2.03
2022-08-07T10:06:12.072Z,2.40
2022-08-07T10:10:02.557Z,2.05
2022-08-07T10:12:55.393Z,2.78
2022-08-07T10:16:34.767Z,1.67
2022-08-07T10:19:46.681Z,1.38
2022-08-07T10:22:53.938Z,1.52
2022-08-07T10:26:04.310Z,1.75
2022-08-07T10:29:06.242Z,1.85
2022-08-07T10:32:52.585Z,1.98
2022-08-07T10:36:19.174Z,1.38
2022-08-07T10:39:42.262Z,2.90
2022-08-07T10:42:54.173Z,1.33
2022-08-07T10:45:44.671Z,1.65
2022-08-07T10:49:01.050Z,1.38
2022-08-07T10:52:13.773Z,1.73
2022-08-07T10:55:45.637Z,1.45
2022-08-07T10:58:33.210Z,1.42
2022-08-07T11:01:35.566Z,2.25
2022-08-07T11:04:52.064Z,1.27
2022-08-07T11:07:59.508Z,2.83
2022-08-07T11:11:00.261Z,0.90
2022-08-07T11:14:43.825Z,1.63
2022-08-07T11:16:52.805Z,1.33
2022-08-07T11:20:12.794Z,2.20
2022-08-07T11:23:03.148Z,1.43
2022-08-07T11:25:49.707Z,1.15
2022-08-07T11:28:34.032Z,1.38
2022-08-07T11:31:35.026Z,0.95
2022-08-07T11:34:29.636Z,1.20
2022-08-07T11:37:16.909Z,1.42
2022-08-07T11:40:19.396Z,1.17
2022-08-07T11:43:00.531Z,0.90
2022-08-07T11:46:02.813Z,1.17
2022-08-07T11:49:50.512Z,2.33
2022-08-07T11:52:35.727Z,0.75
2022-08-07T11:56:24.998Z,1.20
2022-08-07T12:00:08.061Z,1.05
2022-08-07T12:02:30.522Z,1.00
2022-08-07T12:05:41.466Z,0.60
2022-08-07T12:08:31.833Z,1.23
2022-08-07T12:11:22.547Z,1.27
2022-08-07T12:14:08.381Z,0.95
2022-08-07T12:16:55.789Z,4.30
2022-08-07T12:20:02.509Z,0.70
2022-08-07T12:22:56.124Z,0.80
2022-08-07T12:26:03.521Z,0.90
2022-08-07T12:29:11.607Z,0.82
2022-08-07T12:32:04.835Z,1.00
2022-08-07T12:34:42.125Z,0.80
2022-08-07T12:37:28.358Z,1.40
2022-08-07T12:40:46.379Z,1.00
2022-08-07T12:44:02.704Z,2.28
2022-08-07T12:46:32.682Z,1.58
2022-08-07T12:49:44.238Z,1.08
2022-08-07T12:52:34.739Z,0.98
2022-08-07T12:56:02.287Z,0.68
2022-08-07T12:58:43.817Z,1.08
2022-08-07T13:02:13.195Z,0.88
2022-08-07T13:06:02.896Z,1.05
2022-08-07T13:08:56.366Z,1.02
2022-08-07T13:12:03.566Z,0.73
2022-08-07T13:15:04.528Z,0.95
2022-08-07T13:17:52.701Z,0.90
2022-08-07T13:20:46.420Z,1.15
2022-08-07T13:24:00.690Z,1.65
2022-08-07T13:27:20.780Z,0.95
2022-08-07T13:30:19.303Z,0.68
2022-08-07T13:34:31.528Z,0.65
2022-08-07T13:36:49.150Z,1.08
2022-08-07T13:40:33.419Z,1.33
2022-08-07T13:42:39.709Z,1.73
2022-08-07T13:46:06.863Z,0.75
2022-08-07T13:48:27.431Z,1.10
2022-08-07T13:51:28.392Z,1.10
2022-08-07T13:54:07.423Z,1.60
2022-08-07T13:56:51.782Z,0.50
2022-08-07T13:59:32.830Z,1.02
2022-08-07T14:02:15.164Z,1.08
2022-08-07T14:04:59.151Z,1.13
2022-08-07T14:07:59.713Z,1.20
2022-08-07T14:10:41.998Z,1.10
2022-08-07T14:13:20.917Z,0.95
2022-08-07T14:16:15.979Z,0.77
2022-08-07T14:18:57.354Z,1.00
2022-08-07T14:22:01.830Z,0.68
2022-08-07T14:24:41.210Z,1.15
2022-08-07T14:28:12.916Z,1.10
2022-08-07T14:30:27.736Z,0.90
2022-08-07T14:35:48.475Z,0.95
2022-08-07T14:38:33.379Z,0.70
2022-08-07T14:41:12.141Z,1.10
2022-08-07T14:43:58.526Z,1.25
2022-08-07T14:49:57.355Z,0.75
2022-08-07T14:52:34.098Z,1.08
2022-08-07T14:55:17.413Z,0.73
2022-08-07T14:57:58.765Z,0.65
2022-08-07T15:00:35.228Z,0.82
2022-08-07T15:03:16.566Z,1.58
2022-08-07T15:08:54.629Z,1.05
2022-08-07T15:11:53.864Z,1.38
2022-08-07T15:14:33.834Z,0.43
2022-08-07T15:17:55.511Z,0.70
2022-08-07T15:20:55.401Z,0.95
2022-08-07T15:26:57.232Z,0.80
2022-08-07T15:30:04.544Z,0.88
2022-08-07T15:36:00.474Z,0.40
2022-08-07T15:44:52.190Z,0.52
2022-08-07T15:48:00.459Z,0.52
2022-08-07T15:50:37.838Z,1.10
2022-08-07T15:53:52.216Z,0.85
2022-08-07T15:56:40.631Z,0.80
2022-08-07T15:59:17.303Z,3.17
2022-08-07T16:02:02.378Z,0.77
2022-08-07T16:04:38.439Z,0.40
2022-08-07T16:08:31.755Z,0.73
2022-08-07T16:10:21.782Z,3.28
2022-08-07T16:13:59.101Z,2.40
2022-08-07T16:16:47.668Z,0.50
2022-08-07T16:20:00.026Z,0.80
2022-08-07T16:22:57.992Z,0.75
2022-08-07T16:26:01.835Z,0.82
2022-08-07T16:30:05.936Z,0.57
2022-08-07T16:32:33.015Z,0.52
2022-08-07T16:35:50.311Z,0.65
2022-08-07T16:39:01.423Z,0.32
2022-08-07T16:42:00.059Z,0.95
2022-08-07T16:45:14.648Z,2.22
2022-08-07T16:48:29.938Z,0.50
2022-08-07T16:52:01.878Z,0.68
2022-08-07T16:54:54.315Z,1.13
2022-08-07T16:58:01.725Z,0.63
2022-08-07T17:00:50.174Z,0.77
2022-08-07T17:03:59.912Z,0.80
2022-08-07T17:07:05.418Z,2.05
2022-08-07T17:10:06.125Z,0.73
2022-08-07T17:13:08.671Z,0.90
2022-08-07T17:15:56.925Z,0.93
2022-08-07T17:18:49.209Z,0.88
2022-08-07T17:21:59.303Z,0.55
2022-08-07T17:25:08.259Z,1.60
2022-08-07T17:27:58.714Z,1.35
2022-08-07T17:31:16.111Z,1.38
2022-08-07T17:34:17.969Z,3.20
2022-08-07T17:37:09.545Z,1.77
2022-08-07T17:40:05.490Z,1.27
2022-08-07T17:42:59.981Z,1.55
2022-08-07T17:45:54.145Z,1.27
2022-08-07T17:48:39.290Z,1.65
2022-08-07T17:51:49.254Z,2.72
2022-08-07T17:54:54.558Z,2.70
2022-08-07T17:57:58.406Z,2.65
2022-08-07T18:00:49.006Z,1.55
2022-08-07T18:04:03.965Z,1.83
2022-08-07T18:06:47.259Z,1.60
2022-08-07T18:09:48.382Z,1.40
2022-08-07T18:12:36.196Z,1.17
2022-08-07T18:15:22.678Z,1.90
2022-08-07T18:18:45.046Z,1.05
2022-08-07T18:21:42.280Z,1.25
2022-08-07T18:24:40.264Z,3.65
2022-08-07T18:27:50.959Z,0.90
2022-08-07T18:30:39.229Z,1.90
2022-08-07T18:34:06.387Z,1.27
2022-08-07T18:38:55.245Z,1.02
2022-08-07T18:41:44.909Z,1.23
2022-08-07T18:45:43.519Z,1.50
2022-08-07T18:50:05.111Z,1.35
2022-08-07T18:52:37.752Z,1.35
2022-08-07T18:54:51.590Z,1.20
2022-08-07T18:58:01.819Z,1.02
2022-08-07T19:00:40.172Z,1.52
2022-08-07T19:03:38.128Z,1.20
2022-08-07T19:06:54.264Z,1.50
2022-08-07T19:09:57.158Z,1.42
2022-08-07T19:12:53.475Z,1.92
2022-08-07T19:16:05.130Z,1.90
2022-08-07T19:19:02.361Z,1.40
2022-08-07T19:21:53.496Z,1.15
2022-08-07T19:24:44.568Z,1.65
2022-08-07T19:28:30.306Z,1.55
2022-08-07T19:31:06.376Z,1.20
2022-08-07T19:33:16.039Z,2.35
2022-08-07T19:35:56.813Z,1.40
2022-08-07T19:38:34.329Z,1.42
2022-08-07T19:41:08.525Z,2.10
2022-08-07T19:43:49.993Z,1.87
2022-08-07T19:46:55.376Z,1.65
2022-08-07T19:49:57.679Z,1.70
2022-08-07T19:52:32.759Z,1.65
2022-08-07T19:55:11.062Z,1.35
2022-08-07T19:58:03.929Z,4.35
2022-08-07T20:00:53.040Z,2.15
2022-08-07T20:03:33.609Z,1.85
2022-08-07T20:06:15.315Z,2.03
2022-08-07T20:09:01.848Z,1.90
2022-08-07T20:12:21.909Z,1.80
2022-08-07T20:14:53.721Z,2.20
2022-08-07T20:17:36.033Z,2.03
2022-08-07T20:20:13.339Z,2.20
2022-08-07T20:22:50.223Z,1.92
2022-08-07T20:25:24.611Z,2.70
2022-08-07T20:28:05.596Z,2.05
2022-08-07T20:30:46.895Z,2.45
2022-08-07T20:33:24.275Z,3.17
2022-08-07T20:36:11.918Z,2.20
2022-08-07T20:39:00.554Z,3.10
2022-08-07T20:41:50.641Z,3.85
2022-08-07T20:44:35.674Z,3.60
2022-08-07T20:47:10.887Z,2.60
2022-08-07T20:49:59.300Z,2.72
2022-08-07T20:52:50.691Z,2.80
2022-08-07T20:55:25.485Z,2.40
2022-08-07T20:58:15.220Z,2.75
2022-08-07T21:01:00.670Z,3.03
2022-08-07T21:03:40.091Z,3.40
2022-08-07T21:06:25.853Z,2.58
2022-08-07T21:09:16.791Z,3.58
2022-08-07T21:11:53.044Z,2.78
2022-08-07T21:14:35.407Z,2.70
2022-08-07T21:18:06.096Z,2.58
2022-08-07T21:20:26.853Z,2.47
2022-08-07T21:23:18.263Z,3.22
2022-08-07T21:26:38.709Z,3.65
2022-08-07T21:29:23.237Z,2.45
2022-08-07T21:32:48.403Z,4.05
2022-08-07T21:35:34.593Z,2.88
2022-08-07T21:38:46.783Z,2.88
2022-08-07T21:41:38.170Z,2.88
2022-08-07T21:44:53.188Z,3.33
2022-08-07T21:47:37.869Z,3.30
2022-08-07T21:50:26.020Z,4.13
2022-08-07T21:53:09.306Z,2.90
2022-08-07T21:56:35.822Z,3.53
2022-08-07T22:00:04.924Z,3.08
2022-08-07T22:02:59.184Z,3.92
2022-08-07T22:05:48.131Z,2.83
2022-08-07T22:08:31.935Z,2.42
2022-08-07T22:11:08.285Z,3.13
2022-08-07T22:13:52.396Z,3.42
2022-08-07T22:16:42.992Z,2.70
2022-08-07T22:20:06.987Z,2.97
2022-08-07T22:22:50.688Z,2.88
2022-08-07T22:26:04.894Z,3.17
2022-08-07T22:29:08.911Z,4.15
2022-08-07T22:32:33.297Z,3.60
2022-08-07T22:35:07.904Z,2.67
2022-08-07T22:38:07.348Z,3.60
2022-08-07T22:40:42.048Z,4.10
2022-08-07T22:43:21.443Z,2.42
2022-08-07T22:46:42.968Z,3.78
2022-08-07T22:49:39.383Z,3.63
2022-08-07T22:52:56.417Z,3.50
2022-08-07T22:56:03.956Z,3.72
2022-08-07T22:59:12.592Z,3.50
2022-08-07T23:02:16.513Z,3.10
2022-08-07T23:06:09.037Z,3.05
2022-08-07T23:08:30.658Z,4.32
2022-08-07T23:11:45.972Z,4.22
2022-08-07T23:14:47.517Z,5.85
2022-08-07T23:17:45.983Z,3.33
2022-08-07T23:20:53.152Z,4.80
2022-08-07T23:24:05.261Z,7.50
2022-08-07T23:27:11.589Z,4.97
2022-08-07T23:30:36.076Z,3.95
2022-08-07T23:34:20.670Z,4.53
2022-08-07T23:37:20.295Z,4.38
2022-08-07T23:40:24.955Z,5.30
2022-08-07T23:43:40.483Z,4.53
2022-08-07T23:46:42.984Z,4.25
2022-08-07T23:49:50.511Z,6.18
2022-08-07T23:55:53.420Z,5.85
